createdAt,value
2023-03-17T00:02:12.204Z,98964.88
2023-03-17T00:04:40.850Z,98958.66
2023-03-17T00:07:11.093Z,98954.97
2023-03-17T00:09:39.697Z,98964.03
2023-03-17T00:12:11.864Z,98964.03
2023-03-17T00:14:44.550Z,98971.25
2023-03-17T00:17:14.806Z,98963.19
2023-03-17T00:19:43.649Z,98969.41
2023-03-17T00:22:18.027Z,98974.78
2023-03-17T00:24:46.660Z,98964.03
2023-03-17T00:27:15.486Z,98972.25
2023-03-17T00:29:45.508Z,98972.25
2023-03-17T00:32:17.707Z,98969.56
2023-03-17T00:34:46.355Z,98966.88
2023-03-17T00:37:15.271Z,98973.13
2023-03-17T00:39:43.967Z,98974.09
2023-03-17T00:42:12.767Z,98975.94
2023-03-17T00:44:41.692Z,98974.28
2023-03-17T00:47:13.285Z,98976.97
2023-03-17T00:49:41.952Z,98981.31
2023-03-17T00:52:10.865Z,98982.16
2023-03-17T00:54:39.407Z,98971.41
2023-03-17T00:57:10.924Z,98966.03
2023-03-17T00:59:41.080Z,98971.41
2023-03-17T01:02:13.265Z,98956.13
2023-03-17T01:04:49.997Z,98955.28
2023-03-17T01:07:21.931Z,98941.72
2023-03-17T01:09:50.774Z,98947.09
2023-03-17T01:12:20.546Z,98951.63
2023-03-17T01:14:49.301Z,98949.78
2023-03-17T01:17:19.534Z,98948.94
2023-03-17T01:19:48.830Z,98938.19
2023-03-17T01:22:17.468Z,98930.28
2023-03-17T01:24:47.931Z,98938.34
2023-03-17T01:27:16.575Z,98932.97
2023-03-17T01:29:45.312Z,98925.75
2023-03-17T01:32:14.485Z,98923.06
2023-03-17T01:34:44.735Z,98926.75
2023-03-17T01:37:13.570Z,98933.81
2023-03-17T01:39:42.423Z,98929.25
2023-03-17T01:42:11.622Z,98927.59
2023-03-17T01:44:59.659Z,98927.59
2023-03-17T01:47:30.531Z,98922.22
2023-03-17T01:50:01.707Z,98917.88
2023-03-17T01:52:30.799Z,98932.13
2023-03-17T01:55:01.614Z,98935.66
2023-03-17T01:57:33.984Z,98934.81
2023-03-17T02:00:06.044Z,98927.59
2023-03-17T02:02:36.892Z,98924.06
2023-03-17T02:05:09.380Z,98934.81
2023-03-17T02:07:38.561Z,98933.09
2023-03-17T02:10:08.940Z,98920.53
2023-03-17T02:12:37.600Z,98919.69
2023-03-17T02:15:08.052Z,98920.53
2023-03-17T02:17:37.187Z,98916.16
2023-03-17T02:21:09.936Z,98908.94
2023-03-17T02:23:40.449Z,98901.88
2023-03-17T02:26:09.053Z,98897.34
2023-03-17T02:28:37.736Z,98895.50
2023-03-17T02:31:06.473Z,98891.97
2023-03-17T02:33:35.501Z,98884.75
2023-03-17T02:36:04.382Z,98891.97
2023-03-17T02:38:33.104Z,98888.47
2023-03-17T02:41:03.293Z,98879.56
2023-03-17T02:43:31.916Z,98878.72
2023-03-17T02:46:01.330Z,98881.22
2023-03-17T02:48:30.110Z,98878.72
2023-03-17T02:50:58.726Z,98874.19
2023-03-17T02:53:27.483Z,98869.66
2023-03-17T02:55:56.470Z,98855.38
2023-03-17T02:58:26.486Z,98853.53
2023-03-17T03:00:55.053Z,98852.69
2023-03-17T03:03:23.839Z,98851.88
2023-03-17T03:05:52.402Z,98851.88
2023-03-17T03:08:22.351Z,98869.66
2023-03-17T03:10:51.240Z,98882.25
2023-03-17T03:13:20.047Z,98894.84
2023-03-17T03:15:50.082Z,98890.31
2023-03-17T03:18:18.850Z,98889.47
2023-03-17T03:20:48.129Z,98884.09
2023-03-17T03:23:17.142Z,98882.25
2023-03-17T03:25:45.858Z,98885.91
2023-03-17T03:28:14.563Z,98888.59
2023-03-17T03:33:15.586Z,98889.47
2023-03-17T03:35:44.477Z,98872.50
2023-03-17T03:38:13.396Z,98877.03
2023-03-17T03:40:42.370Z,98893.97
2023-03-17T03:43:22.514Z,98891.47
2023-03-17T03:45:52.111Z,98902.22
2023-03-17T03:48:22.350Z,98899.53
2023-03-17T03:50:50.976Z,98904.91
2023-03-17T03:53:19.893Z,98908.59
2023-03-17T03:55:48.585Z,98895.16
2023-03-17T03:58:17.476Z,98895.16
2023-03-17T04:00:46.840Z,98888.94
2023-03-17T04:03:16.042Z,98889.78
2023-03-17T04:05:46.168Z,98883.56
2023-03-17T04:08:14.887Z,98878.19
2023-03-17T04:10:43.585Z,98877.19
2023-03-17T04:13:14.110Z,98879.06
2023-03-17T04:15:42.894Z,98880.72
2023-03-17T04:18:11.622Z,98871.00
2023-03-17T04:20:40.366Z,98879.06
2023-03-17T04:23:10.364Z,98879.88
2023-03-17T04:25:39.071Z,98871.00
2023-03-17T04:28:09.072Z,98869.16
2023-03-17T04:30:38.072Z,98868.31
2023-03-17T04:33:07.295Z,98884.44
2023-03-17T04:35:36.479Z,98879.88
2023-03-17T04:38:05.240Z,98879.88
2023-03-17T04:40:35.397Z,98891.47
2023-03-17T04:43:03.998Z,98884.44
2023-03-17T04:45:32.703Z,98890.63
2023-03-17T04:48:01.295Z,98882.72
2023-03-17T04:50:30.313Z,98896.00
2023-03-17T04:52:59.119Z,98889.09
2023-03-17T04:55:28.171Z,98882.72
2023-03-17T04:57:58.206Z,98886.44
2023-03-17T05:00:26.793Z,98893.47
2023-03-17T05:02:55.346Z,98896.34
2023-03-17T05:05:24.092Z,98898.00
2023-03-17T05:07:52.815Z,98899.69
2023-03-17T05:10:21.704Z,98903.38
2023-03-17T05:12:50.235Z,98892.63
2023-03-17T05:15:21.129Z,98894.47
2023-03-17T05:17:49.960Z,98895.31
2023-03-17T05:20:19.210Z,98897.00
2023-03-17T05:22:47.845Z,98896.16
2023-03-17T05:25:17.024Z,98888.94
2023-03-17T05:27:45.627Z,98893.47
2023-03-17T05:30:15.754Z,98887.25
2023-03-17T05:32:45.928Z,98892.50
2023-03-17T05:35:14.520Z,98895.16
2023-03-17T05:37:43.122Z,98888.94
2023-03-17T05:40:13.872Z,98892.50
2023-03-17T05:42:42.678Z,98892.50
2023-03-17T05:45:13.179Z,98898.69
2023-03-17T05:47:42.015Z,98896.00
2023-03-17T05:50:14.050Z,98901.19
2023-03-17T05:52:43.157Z,98902.22
2023-03-17T05:55:12.581Z,98900.22
2023-03-17T05:57:41.258Z,98900.22
2023-03-17T06:00:12.782Z,98898.38
2023-03-17T06:02:41.862Z,98902.72
2023-03-17T06:05:12.424Z,98908.94
2023-03-17T06:07:52.354Z,98913.31
2023-03-17T06:10:22.100Z,98909.47
2023-03-17T06:12:50.807Z,98910.16
2023-03-17T06:15:19.717Z,98916.19
2023-03-17T06:17:48.589Z,98909.16
2023-03-17T06:20:18.765Z,98906.59
2023-03-17T06:23:02.779Z,98905.78
2023-03-17T06:25:33.297Z,98904.94
2023-03-17T06:28:04.016Z,98911.00
2023-03-17T06:30:34.028Z,98914.66
2023-03-17T06:33:03.020Z,98915.00
2023-03-17T06:35:33.615Z,98909.81
2023-03-17T06:38:03.585Z,98904.09
2023-03-17T06:40:34.160Z,98908.47
2023-03-17T06:43:03.208Z,98907.47
2023-03-17T06:45:33.221Z,98914.66
2023-03-17T06:48:02.396Z,98914.16
2023-03-17T06:50:32.538Z,98916.34
2023-03-17T06:53:01.115Z,98912.97
2023-03-17T06:55:30.080Z,98912.97
2023-03-17T06:57:59.069Z,98910.09
2023-03-17T07:00:28.423Z,98905.59
2023-03-17T07:02:57.887Z,98909.81
2023-03-17T07:05:26.913Z,98917.53
2023-03-17T07:07:57.097Z,98925.97
2023-03-17T07:10:26.227Z,98920.41
2023-03-17T07:12:55.135Z,98924.78
2023-03-17T07:15:24.119Z,98930.00
2023-03-17T07:17:52.743Z,98930.81
2023-03-17T07:20:21.810Z,98931.69
2023-03-17T07:22:51.665Z,98930.69
2023-03-17T07:25:22.529Z,98930.53
2023-03-17T07:27:52.082Z,98926.00
2023-03-17T07:30:20.965Z,98925.81
2023-03-17T07:32:50.286Z,98929.50
2023-03-17T07:35:19.797Z,98928.81
2023-03-17T07:37:48.987Z,98924.28
2023-03-17T07:40:19.544Z,98927.66
2023-03-17T07:42:49.996Z,98932.03
2023-03-17T07:45:18.883Z,98934.88
2023-03-17T07:47:47.536Z,98932.34
2023-03-17T07:50:16.580Z,98941.28
2023-03-17T07:52:45.624Z,98943.44
2023-03-17T07:55:14.597Z,98929.66
2023-03-17T07:57:43.484Z,98931.50
2023-03-17T08:00:15.779Z,98931.50
2023-03-17T08:02:44.739Z,98928.00
2023-03-17T08:05:14.310Z,98926.97
2023-03-17T08:07:44.105Z,98924.28
2023-03-17T08:10:15.622Z,98925.16
2023-03-17T08:12:44.472Z,98917.94
2023-03-17T08:15:14.800Z,98927.66
2023-03-17T08:17:43.728Z,98927.66
2023-03-17T08:20:14.395Z,98924.97
2023-03-17T08:22:44.157Z,98921.44
2023-03-17T08:25:12.880Z,98914.09
2023-03-17T08:27:42.661Z,98914.91
2023-03-17T08:30:14.519Z,98903.16
2023-03-17T08:32:43.592Z,98909.34
2023-03-17T08:35:16.092Z,98916.44
2023-03-17T08:37:44.753Z,98913.75
2023-03-17T08:40:17.067Z,98905.34
2023-03-17T08:42:46.779Z,98908.00
2023-03-17T08:45:18.508Z,98903.66
2023-03-17T08:47:47.719Z,98906.16
2023-03-17T08:50:19.457Z,98890.03
2023-03-17T08:52:48.779Z,98887.34
2023-03-17T08:55:17.808Z,98877.13
2023-03-17T08:57:49.609Z,98878.97
2023-03-17T09:00:21.414Z,98874.44
2023-03-17T09:02:50.184Z,98873.59
2023-03-17T09:05:19.634Z,98879.81
2023-03-17T09:07:49.159Z,98874.44
2023-03-17T09:10:22.593Z,98862.84
2023-03-17T09:12:51.780Z,98867.88
2023-03-17T09:15:22.118Z,98878.63
2023-03-17T09:17:50.964Z,98870.56
2023-03-17T09:20:20.614Z,98874.13
2023-03-17T09:22:49.562Z,98879.50
2023-03-17T09:25:18.614Z,98866.91
2023-03-17T09:27:47.280Z,98869.44
2023-03-17T09:30:16.543Z,98873.81
2023-03-17T09:32:46.848Z,98865.75
2023-03-17T09:35:15.397Z,98873.50
2023-03-17T09:37:43.984Z,98857.38
2023-03-17T09:40:15.986Z,98856.19
2023-03-17T09:42:54.660Z,98852.84
2023-03-17T09:45:32.977Z,98852.00
2023-03-17T09:48:17.862Z,98843.94
2023-03-17T09:50:49.497Z,98844.78
2023-03-17T09:53:21.162Z,98844.63
2023-03-17T09:55:52.962Z,98835.03
2023-03-17T09:58:29.459Z,98838.56
2023-03-17T10:00:58.198Z,98841.06
2023-03-17T10:03:28.320Z,98841.25
2023-03-17T10:06:02.878Z,98842.09
2023-03-17T10:08:32.952Z,98828.50
2023-03-17T10:11:04.380Z,98840.06
2023-03-17T10:13:47.056Z,98831.00
2023-03-17T10:16:17.717Z,98831.84
2023-03-17T10:18:56.801Z,98824.63
2023-03-17T10:21:29.843Z,98830.16
2023-03-17T10:23:59.506Z,98835.53
2023-03-17T10:26:31.367Z,98839.25
2023-03-17T10:29:04.064Z,98846.44
2023-03-17T10:31:34.833Z,98837.53
2023-03-17T10:34:14.679Z,98833.88
2023-03-17T10:36:45.772Z,98828.50
2023-03-17T10:39:17.412Z,98823.94
2023-03-17T10:41:55.577Z,98830.16
2023-03-17T10:44:36.104Z,98823.13
2023-03-17T10:47:04.864Z,98830.16
2023-03-17T10:49:37.813Z,98827.47
2023-03-17T10:52:08.862Z,98817.75
2023-03-17T10:54:38.521Z,98832.84
2023-03-17T10:57:09.479Z,98819.41
2023-03-17T10:59:44.385Z,98819.41
2023-03-17T11:02:22.437Z,98813.19
2023-03-17T11:04:55.282Z,98806.47
2023-03-17T11:07:31.473Z,98789.84
2023-03-17T11:10:02.492Z,98781.78
2023-03-17T11:12:36.800Z,98785.16
2023-03-17T11:15:07.828Z,98775.38
2023-03-17T11:17:47.808Z,98766.50
2023-03-17T11:20:49.495Z,98765.66
2023-03-17T11:23:28.137Z,98764.81
2023-03-17T11:26:14.807Z,98762.13
2023-03-17T11:28:46.842Z,98767.31
2023-03-17T11:31:18.956Z,98771.72
2023-03-17T11:33:51.240Z,98766.50
2023-03-17T11:36:36.311Z,98750.38
2023-03-17T11:39:11.738Z,98753.88
2023-03-17T11:41:49.077Z,98764.63
2023-03-17T11:45:12.560Z,98774.56
2023-03-17T11:47:50.376Z,98764.63
2023-03-17T11:50:26.809Z,98758.09
2023-03-17T11:53:07.428Z,98756.56
2023-03-17T11:55:43.262Z,98745.00
2023-03-17T11:58:17.600Z,98742.31
2023-03-17T12:00:50.928Z,98733.41
2023-03-17T12:03:22.360Z,98738.78
2023-03-17T12:05:54.929Z,98744.16
2023-03-17T12:08:31.093Z,98745.00
2023-03-17T12:11:02.000Z,98739.63
2023-03-17T12:13:34.144Z,98729.06
2023-03-17T12:16:05.572Z,98731.75
2023-03-17T12:18:36.091Z,98726.38
2023-03-17T12:21:10.956Z,98721.97
2023-03-17T12:23:48.204Z,98726.19
2023-03-17T12:26:19.141Z,98724.31
2023-03-17T12:28:51.318Z,98723.50
2023-03-17T12:31:22.964Z,98721.63
2023-03-17T12:33:56.954Z,98714.75
2023-03-17T12:36:26.024Z,98708.19
2023-03-17T12:39:01.726Z,98706.19
2023-03-17T12:42:01.886Z,98690.75
2023-03-17T12:44:42.556Z,98697.13
2023-03-17T12:47:37.930Z,98688.72
2023-03-17T12:50:20.387Z,98684.88
2023-03-17T12:53:14.355Z,98691.44
2023-03-17T12:55:49.806Z,98680.81
2023-03-17T12:58:28.256Z,98684.34
2023-03-17T13:01:02.577Z,98682.69
2023-03-17T13:03:33.089Z,98678.81
2023-03-17T13:06:03.416Z,98679.50
2023-03-17T13:08:33.458Z,98672.44
2023-03-17T13:11:21.048Z,98672.59
2023-03-17T13:14:17.474Z,98659.31
2023-03-17T13:16:47.886Z,98650.25
2023-03-17T13:19:27.638Z,98652.09
2023-03-17T13:22:33.915Z,98655.47
2023-03-17T13:25:16.763Z,98649.41
2023-03-17T13:27:50.006Z,98650.44
2023-03-17T13:30:57.063Z,98657.47
2023-03-17T13:33:31.677Z,98642.69
2023-03-17T13:36:13.413Z,98652.63
2023-03-17T13:39:48.735Z,98649.41
2023-03-17T13:42:48.246Z,98648.25
2023-03-17T13:45:38.580Z,98643.06
2023-03-17T13:48:33.754Z,98630.25
2023-03-17T13:51:09.536Z,98643.19
2023-03-17T13:53:40.296Z,98635.28
2023-03-17T13:56:19.134Z,98621.69
2023-03-17T13:58:59.807Z,98631.63
2023-03-17T14:01:29.172Z,98618.34
2023-03-17T14:03:58.010Z,98618.34
2023-03-17T14:06:31.348Z,98612.97
2023-03-17T14:09:04.859Z,98610.28
2023-03-17T14:11:36.385Z,98605.09
2023-03-17T14:14:32.666Z,98595.19
2023-03-17T14:17:06.577Z,98596.00
2023-03-17T14:19:41.598Z,98596.00
2023-03-17T14:22:24.019Z,98591.47
2023-03-17T14:24:54.271Z,98584.44
2023-03-17T14:27:24.064Z,98578.03
2023-03-17T14:29:54.339Z,98579.88
2023-03-17T14:32:25.010Z,98577.19
2023-03-17T14:34:57.420Z,98574.50
2023-03-17T14:37:26.517Z,98575.19
2023-03-17T14:39:57.624Z,98583.25
2023-03-17T14:42:28.807Z,98580.56
2023-03-17T14:45:07.390Z,98572.50
2023-03-17T14:47:39.911Z,98574.50
2023-03-17T14:50:15.214Z,98563.75
2023-03-17T14:52:44.087Z,98562.44
2023-03-17T14:55:15.083Z,98558.88
2023-03-17T14:57:43.881Z,98556.19
2023-03-17T15:00:36.445Z,98543.94
2023-03-17T15:03:17.621Z,98532.00
2023-03-17T15:05:46.843Z,98542.59
2023-03-17T15:08:42.837Z,98540.06
2023-03-17T15:11:20.975Z,98538.22
2023-03-17T15:13:49.880Z,98529.63
2023-03-17T15:16:23.431Z,98535.53
2023-03-17T15:18:57.252Z,98531.69
2023-03-17T15:21:31.187Z,98525.78
2023-03-17T15:23:59.804Z,98528.66
2023-03-17T15:26:32.266Z,98525.97
2023-03-17T15:29:01.502Z,98532.34
2023-03-17T15:31:31.473Z,98536.88
2023-03-17T15:34:00.206Z,98540.59
2023-03-17T15:36:33.080Z,98537.91
2023-03-17T15:39:02.324Z,98540.59
2023-03-17T15:41:30.957Z,98536.88
2023-03-17T15:43:59.685Z,98536.88
2023-03-17T15:46:32.316Z,98531.50
2023-03-17T15:49:01.084Z,98527.16
2023-03-17T15:51:29.854Z,98531.69
2023-03-17T15:53:58.482Z,98529.84
2023-03-17T15:56:27.896Z,98530.84
2023-03-17T15:58:56.905Z,98522.78
2023-03-17T16:01:27.867Z,98529.00
2023-03-17T16:03:58.195Z,98524.47
2023-03-17T16:06:27.074Z,98528.16
2023-03-17T16:08:55.604Z,98528.16
2023-03-17T16:11:28.453Z,98523.75
2023-03-17T16:13:57.309Z,98523.75
2023-03-17T16:16:33.199Z,98517.56
2023-03-17T16:19:03.865Z,98523.75
2023-03-17T16:21:32.720Z,98521.09
2023-03-17T16:24:01.384Z,98524.63
2023-03-17T16:26:30.164Z,98522.94
2023-03-17T16:28:58.874Z,98516.72
2023-03-17T16:31:29.451Z,98515.88
2023-03-17T16:33:58.269Z,98518.56
2023-03-17T16:36:28.376Z,98511.34
2023-03-17T16:38:57.185Z,98514.03
2023-03-17T16:41:27.823Z,98518.56
2023-03-17T16:44:00.425Z,98514.19
2023-03-17T16:46:29.719Z,98517.72
2023-03-17T16:48:58.462Z,98514.34
2023-03-17T16:51:28.498Z,98510.69
2023-03-17T16:53:57.240Z,98508.81
2023-03-17T16:56:26.087Z,98509.84
2023-03-17T16:58:54.740Z,98516.06
2023-03-17T17:01:24.786Z,98517.91
2023-03-17T17:03:53.549Z,98521.59
2023-03-17T17:06:22.759Z,98525.09
2023-03-17T17:08:52.853Z,98532.34
2023-03-17T17:11:21.689Z,98530.47
2023-03-17T17:13:51.820Z,98535.84
2023-03-17T17:16:24.808Z,98534.03
2023-03-17T17:18:53.558Z,98535.03
2023-03-17T17:21:22.478Z,98534.19
2023-03-17T17:23:53.257Z,98536.03
2023-03-17T17:26:22.405Z,98543.28
2023-03-17T17:28:51.193Z,98550.31
2023-03-17T17:31:19.897Z,98544.94
2023-03-17T17:33:48.881Z,98540.94
2023-03-17T17:36:18.366Z,98551.66
2023-03-17T17:38:47.292Z,98537.19
2023-03-17T17:41:21.404Z,98536.38
2023-03-17T17:43:50.273Z,98536.38
2023-03-17T17:46:21.397Z,98532.19
2023-03-17T17:48:50.283Z,98534.50
2023-03-17T17:51:19.103Z,98543.09
2023-03-17T17:53:47.760Z,98543.44
2023-03-17T17:56:18.524Z,98537.91
2023-03-17T17:58:47.659Z,98537.19
2023-03-17T18:01:20.146Z,98545.25
2023-03-17T18:03:48.845Z,98544.28
2023-03-17T18:06:18.151Z,98539.75
2023-03-17T18:08:47.080Z,98540.59
2023-03-17T18:11:17.255Z,98544.13
2023-03-17T18:13:45.831Z,98537.91
2023-03-17T18:16:16.483Z,98538.56
2023-03-17T18:18:46.118Z,98536.06
2023-03-17T18:21:15.069Z,98530.84
2023-03-17T18:23:47.160Z,98534.88
2023-03-17T18:26:18.172Z,98523.44
2023-03-17T18:28:47.878Z,98532.34
2023-03-17T18:31:19.417Z,98534.38
2023-03-17T18:33:48.559Z,98529.84
2023-03-17T18:36:17.361Z,98528.00
2023-03-17T18:38:46.070Z,98519.09
2023-03-17T18:41:14.829Z,98524.47
2023-03-17T18:43:45.053Z,98529.84
2023-03-17T18:46:14.020Z,98525.63
2023-03-17T18:48:42.813Z,98526.63
2023-03-17T18:51:11.548Z,98540.59
2023-03-17T18:53:40.562Z,98534.53
2023-03-17T18:56:09.786Z,98532.88
2023-03-17T18:58:38.434Z,98522.13
2023-03-17T19:01:08.924Z,98516.75
2023-03-17T19:03:38.052Z,98512.38
2023-03-17T19:06:11.789Z,98508.84
2023-03-17T19:08:40.340Z,98510.50
2023-03-17T19:11:09.334Z,98513.38
2023-03-17T19:13:38.162Z,98512.38
2023-03-17T19:16:08.967Z,98499.75
2023-03-17T19:18:41.403Z,98498.94
2023-03-17T19:21:10.644Z,98490.88
2023-03-17T19:23:39.383Z,98492.72
2023-03-17T19:26:08.696Z,98494.41
2023-03-17T19:28:37.359Z,98494.41
2023-03-17T19:31:07.595Z,98498.94
2023-03-17T19:33:36.239Z,98491.91
2023-03-17T19:36:08.852Z,98498.94
2023-03-17T19:38:37.746Z,98487.19
2023-03-17T19:41:06.847Z,98491.69
2023-03-17T19:43:40.683Z,98491.34
2023-03-17T19:46:12.576Z,98484.50
2023-03-17T19:48:42.065Z,98489.88
2023-03-17T19:51:11.843Z,98487.34
2023-03-17T19:53:40.559Z,98485.50
2023-03-17T19:56:10.952Z,98476.59
2023-03-17T19:58:39.559Z,98472.06
2023-03-17T20:01:08.637Z,98474.75
2023-03-17T20:03:42.782Z,98478.47
2023-03-17T20:06:23.212Z,98472.06
2023-03-17T20:08:51.856Z,98472.06
2023-03-17T20:11:21.124Z,98477.44
2023-03-17T20:13:50.186Z,98474.75
2023-03-17T20:16:18.938Z,98481.16
2023-03-17T20:18:49.061Z,98473.09
2023-03-17T20:21:17.858Z,98467.72
2023-03-17T20:23:46.580Z,98476.59
2023-03-17T20:26:15.357Z,98473.09
2023-03-17T20:28:43.953Z,98476.75
2023-03-17T20:31:12.620Z,98484.81
2023-03-17T20:33:41.446Z,98486.53
2023-03-17T20:36:12.777Z,98481.31
2023-03-17T20:38:43.785Z,98479.44
2023-03-17T20:41:13.817Z,98485.84
2023-03-17T20:43:42.875Z,98483.16
2023-03-17T20:46:17.141Z,98483.16
2023-03-17T20:48:47.803Z,98476.97
2023-03-17T20:51:17.951Z,98476.13
2023-03-17T20:53:47.623Z,98477.78
2023-03-17T20:56:16.675Z,98479.44
2023-03-17T20:58:47.093Z,98467.88
2023-03-17T21:01:17.186Z,98472.25
2023-03-17T21:03:46.660Z,98471.41
2023-03-17T21:06:15.278Z,98476.59
2023-03-17T21:08:46.362Z,98476.75
2023-03-17T21:11:17.580Z,98475.78
2023-03-17T21:13:46.670Z,98481.16
2023-03-17T21:16:16.887Z,98476.75
2023-03-17T21:18:48.658Z,98479.44
2023-03-17T21:21:17.994Z,98479.44
2023-03-17T21:23:49.344Z,98477.63
2023-03-17T21:26:18.967Z,98475.94
2023-03-17T21:28:48.955Z,98480.47
2023-03-17T21:31:18.202Z,98472.41
2023-03-17T21:33:50.761Z,98484.81
2023-03-17T21:36:21.106Z,98477.78
2023-03-17T21:38:51.956Z,98479.63
2023-03-17T21:41:28.059Z,98485.84
2023-03-17T21:43:58.295Z,98477.78
2023-03-17T21:46:28.048Z,98485.00
2023-03-17T21:48:57.415Z,98482.34
2023-03-17T21:51:27.405Z,98469.72
2023-03-17T21:53:58.179Z,98477.78
2023-03-17T21:56:27.544Z,98475.09
2023-03-17T21:58:58.094Z,98470.75
2023-03-17T22:01:28.325Z,98473.75
2023-03-17T22:03:57.831Z,98473.09
2023-03-17T22:06:27.705Z,98473.25
2023-03-17T22:08:58.034Z,98477.78
2023-03-17T22:11:27.138Z,98473.25
2023-03-17T22:13:56.229Z,98470.56
2023-03-17T22:16:25.668Z,98468.91
2023-03-17T22:18:55.184Z,98472.41
2023-03-17T22:21:25.155Z,98473.25
2023-03-17T22:23:54.366Z,98468.72
2023-03-17T22:26:24.785Z,98479.44
2023-03-17T22:28:53.775Z,98479.44
2023-03-17T22:31:24.659Z,98475.78
2023-03-17T22:33:56.680Z,98479.44
2023-03-17T22:36:26.327Z,98475.94
2023-03-17T22:38:57.577Z,98476.75
2023-03-17T22:41:30.259Z,98476.75
2023-03-17T22:43:59.892Z,98483.16
2023-03-17T22:46:29.191Z,98481.31
2023-03-17T22:48:58.882Z,98489.38
2023-03-17T22:51:28.616Z,98486.69
2023-03-17T22:53:58.016Z,98475.09
2023-03-17T22:56:28.941Z,98471.41
2023-03-17T22:58:58.236Z,98462.50
2023-03-17T23:01:28.852Z,98471.59
2023-03-17T23:03:58.396Z,98464.34
2023-03-17T23:06:28.014Z,98468.72
2023-03-17T23:08:58.223Z,98464.19
2023-03-17T23:11:29.284Z,98459.81
2023-03-17T23:13:58.779Z,98467.03
2023-03-17T23:16:28.068Z,98468.72
2023-03-17T23:18:57.365Z,98470.56
2023-03-17T23:21:29.537Z,98468.06
2023-03-17T23:23:59.028Z,98462.50
2023-03-17T23:26:30.285Z,98458.16
2023-03-17T23:28:59.654Z,98460.66
2023-03-17T23:31:28.787Z,98458.31
2023-03-17T23:33:58.376Z,98451.75
2023-03-17T23:36:28.024Z,98454.28
2023-03-17T23:38:57.413Z,98455.13
2023-03-17T23:41:27.592Z,98447.06
2023-03-17T23:43:58.739Z,98455.13
2023-03-17T23:46:29.114Z,98444.22
2023-03-17T23:48:58.638Z,98448.72
2023-03-17T23:51:30.181Z,98453.25
2023-03-17T23:54:00.958Z,98455.13
2023-03-17T23:56:29.860Z,98456.78
2023-03-17T23:59:00.827Z,98455.13
